Time;durP1;ratioP1;P1;durP2;ratioP2;P2;SDS_P1;SDS_P2;PMS_P1;PMS_P2;Temp;Humidity;BMP_temperature;BMP_pressure;BME280_temperature;BME280_humidity;BME280_pressure;Samples;Min_cycle;Max_cycle;Signal;HPM_P1;HPM_P2
2022/01/09 00:00:42;;;;;;;18.90;4.37;;;;;;;-145.18;100.00;47570.75;5027916;28;20037;-66
2022/01/09 00:03:08;;;;;;;35.93;7.17;;;;;;;-145.18;100.00;47547.31;5028058;28;20060;-67
2022/01/09 00:05:34;;;;;;;43.13;7.23;;;;;;;-145.18;100.00;47551.22;5027719;28;20037;-67
2022/01/09 00:07:59;;;;;;;33.80;6.10;;;;;;;-145.18;100.00;47543.41;5027972;28;20148;-66
2022/01/09 00:10:27;;;;;;;47.43;7.63;;;;;;;-145.18;100.00;47576.63;5027230;28;20710;-67
2022/01/09 00:12:52;;;;;;;44.93;6.87;;;;;;;-145.18;100.00;47535.59;5027937;28;20030;-66
2022/01/09 00:15:18;;;;;;;35.03;5.87;;;;;;;-145.18;100.00;47564.91;5025895;28;20368;-67
2022/01/09 00:17:43;;;;;;;41.43;7.10;;;;;;;-145.18;100.00;47586.38;5027713;28;20120;-67
2022/01/09 00:20:10;;;;;;;35.67;5.50;;;;;;;-145.18;100.00;47578.56;5027495;28;20042;-67
2022/01/09 00:22:48;;;;;;;33.80;7.50;;;;;;;-145.18;100.00;47555.13;5027405;28;20509;-67
2022/01/09 00:25:15;;;;;;;28.57;5.27;;;;;;;-145.18;100.00;47551.22;5027113;28;20644;-67
2022/01/09 00:27:41;;;;;;;23.47;3.67;;;;;;;-145.18;100.00;47533.63;5027420;28;20275;-67
2022/01/09 00:30:09;;;;;;;29.90;4.37;;;;;;;-145.18;100.00;47535.59;5027548;28;20302;-67
2022/01/09 00:32:35;;;;;;;23.70;4.53;;;;;;;-145.18;100.00;47557.06;5027126;28;20037;-67
2022/01/09 00:35:00;;;;;;;37.43;6.07;;;;;;;-145.18;100.00;47535.59;5027185;28;20281;-67
2022/01/09 00:37:26;;;;;;;44.13;5.60;;;;;;;-145.18;100.00;47537.53;5027864;28;20259;-67
2022/01/09 00:39:54;;;;;;;42.10;5.80;;;;;;;-145.18;100.00;47537.53;5027126;28;20037;-67
2022/01/09 00:42:20;;;;;;;20.80;4.07;;;;;;;-145.18;100.00;47543.41;5026843;28;20441;-67
2022/01/09 00:44:45;;;;;;;37.87;6.43;;;;;;;-145.18;100.00;47555.13;5027120;28;20259;-67
2022/01/09 00:47:11;;;;;;;23.10;4.83;;;;;;;-145.18;100.00;47559.03;5026670;28;20049;-67
2022/01/09 00:49:37;;;;;;;34.80;5.63;;;;;;;-145.18;100.00;47508.22;5027238;28;20052;-67
2022/01/09 00:52:02;;;;;;;40.57;4.47;;;;;;;-145.18;100.00;47539.50;5027106;28;20138;-68
2022/01/09 00:54:28;;;;;;;42.77;6.30;;;;;;;-145.18;100.00;47512.16;5027703;28;20294;-67
2022/01/09 00:56:53;;;;;;;33.63;5.93;;;;;;;-145.18;100.00;47533.63;5027188;28;20037;-66
2022/01/09 00:59:18;;;;;;;32.63;5.67;;;;;;;-145.18;100.00;47518.00;5027042;28;20052;-67
2022/01/09 01:01:44;;;;;;;38.47;5.50;;;;;;;-145.18;100.00;47523.88;5026655;28;20037;-67
2022/01/09 01:04:09;;;;;;;38.17;6.50;;;;;;;-145.18;100.00;47525.81;5027043;28;20124;-67
2022/01/09 01:06:35;;;;;;;35.67;5.43;;;;;;;-145.18;100.00;47531.69;5027025;28;20160;-67
2022/01/09 01:09:00;;;;;;;36.93;5.00;;;;;;;-145.18;100.00;47531.69;5027736;28;20091;-67
2022/01/09 01:11:25;;;;;;;34.60;6.07;;;;;;;-145.18;100.00;47494.56;5026234;28;20042;-67
2022/01/09 01:13:51;;;;;;;28.10;5.57;;;;;;;-145.18;100.00;47498.47;5027170;28;20041;-67
2022/01/09 01:16:17;;;;;;;32.37;6.73;;;;;;;-145.18;100.00;47527.78;5026246;28;20072;-66
2022/01/09 01:18:44;;;;;;;40.13;5.10;;;;;;;-145.18;100.00;47523.88;5025542;28;20052;-67
2022/01/09 01:21:10;;;;;;;29.37;6.17;;;;;;;-145.18;100.00;47496.50;5026736;28;20057;-67
2022/01/09 01:23:35;;;;;;;37.77;5.67;;;;;;;-145.18;100.00;47516.06;5027578;28;20296;-67
2022/01/09 01:26:02;;;;;;;41.00;6.60;;;;;;;-145.18;100.00;47510.19;5026990;28;20042;-66
2022/01/09 01:28:28;;;;;;;25.83;5.00;;;;;;;-145.18;100.00;47521.91;5030939;28;20516;-67
2022/01/09 01:30:54;;;;;;;40.80;5.63;;;;;;;-145.18;100.00;47527.78;5030277;28;20263;-66
2022/01/09 01:33:19;;;;;;;27.70;5.10;;;;;;;-145.18;100.00;47512.16;5030772;28;20333;-67
2022/01/09 01:35:45;;;;;;;32.40;4.20;;;;;;;-145.18;100.00;47510.19;5030261;28;20037;-67
2022/01/09 01:38:10;;;;;;;31.17;5.77;;;;;;;-145.18;100.00;47512.16;5031454;28;20577;-67
2022/01/09 01:40:35;;;;;;;24.10;5.20;;;;;;;-145.18;100.00;47533.63;5028957;28;20562;-67
2022/01/09 01:43:01;;;;;;;33.30;4.77;;;;;;;-145.18;100.00;47502.38;5030497;28;20117;-67
2022/01/09 01:45:26;;;;;;;34.10;4.80;;;;;;;-145.18;100.00;47512.16;5028356;28;20051;-67
2022/01/09 01:47:52;;;;;;;33.40;6.37;;;;;;;-145.18;100.00;47494.56;5029138;28;20034;-67
2022/01/09 01:50:19;;;;;;;27.63;4.80;;;;;;;-145.18;100.00;47500.41;5029038;28;20073;-67
2022/01/09 01:52:47;;;;;;;24.67;6.23;;;;;;;-145.18;100.00;47516.06;5030179;28;20041;-69
2022/01/09 01:55:14;;;;;;;31.03;5.33;;;;;;;-145.18;100.00;47514.09;5030624;28;20336;-67
2022/01/09 01:57:43;;;;;;;27.63;3.63;;;;;;;-145.18;100.00;47516.06;5030230;28;20263;-67
2022/01/09 02:00:13;;;;;;;29.57;5.00;;;;;;;-145.18;100.00;47521.91;5030455;28;20345;-67
2022/01/09 02:02:38;;;;;;;25.53;3.90;;;;;;;-145.18;100.00;47516.06;5029981;28;20307;-67
2022/01/09 02:05:05;;;;;;;27.43;4.10;;;;;;;-145.18;100.00;47512.16;5030152;28;20270;-67
2022/01/09 02:07:30;;;;;;;41.33;5.17;;;;;;;-145.18;100.00;47492.59;5029822;28;20042;-67
2022/01/09 02:09:56;;;;;;;18.93;2.63;;;;;;;-145.18;100.00;47521.91;5029800;28;20271;-67
2022/01/09 02:12:22;;;;;;;25.70;4.50;;;;;;;-145.18;100.00;47504.31;5029713;28;20045;-68
2022/01/09 02:14:48;;;;;;;31.03;4.43;;;;;;;-145.18;100.00;47527.78;5029182;28;20537;-67
2022/01/09 02:17:18;;;;;;;38.97;4.80;;;;;;;-145.18;100.00;47525.81;5029222;28;20266;-67
2022/01/09 02:19:54;;;;;;;20.43;4.00;;;;;;;-145.18;100.00;47502.38;5029887;28;20046;-67
2022/01/09 02:22:21;;;;;;;20.50;3.83;;;;;;;-145.18;100.00;47500.41;5029835;28;20302;-67
2022/01/09 02:24:46;;;;;;;28.67;4.50;;;;;;;-145.18;100.00;47510.19;5029824;28;20275;-67
2022/01/09 02:27:12;;;;;;;27.70;3.50;;;;;;;-145.18;100.00;47519.97;5029287;28;20317;-67
2022/01/09 02:29:38;;;;;;;24.70;3.67;;;;;;;-145.18;100.00;47539.50;5029324;28;20045;-67
2022/01/09 02:32:03;;;;;;;20.93;3.47;;;;;;;-145.18;100.00;47512.16;5029362;28;20298;-67
2022/01/09 02:34:29;;;;;;;27.17;4.37;;;;;;;-145.18;100.00;47527.78;5029432;28;20041;-68
2022/01/09 02:36:54;;;;;;;37.87;4.63;;;;;;;-145.18;100.00;47519.97;5029415;28;20072;-67
2022/01/09 02:39:20;;;;;;;37.07;4.63;;;;;;;-145.18;100.00;47531.69;5029081;28;20065;-67
2022/01/09 02:41:45;;;;;;;22.77;4.90;;;;;;;-145.18;100.00;47521.91;5029516;28;20041;-67
2022/01/09 02:44:11;;;;;;;21.53;3.63;;;;;;;-145.18;100.00;47531.69;5028267;28;20048;-67
2022/01/09 02:46:52;;;;;;;26.90;4.43;;;;;;;-145.18;100.00;47525.81;5028691;28;20558;-67
2022/01/09 02:49:17;;;;;;;33.20;3.83;;;;;;;-145.18;100.00;47537.53;5029288;28;20535;-67
2022/01/09 02:51:45;;;;;;;22.80;4.07;;;;;;;-145.18;100.00;47518.00;5029065;28;20267;-67
2022/01/09 02:56:54;;;;;;;23.40;4.07;;;;;;;-145.18;100.00;47531.69;5029067;28;20328;-67
2022/01/09 02:59:20;;;;;;;32.90;4.23;;;;;;;-145.18;100.00;47543.41;5027723;28;20275;-67
2022/01/09 03:01:45;;;;;;;20.70;3.47;;;;;;;-145.18;100.00;47539.50;5028899;28;20037;-67
2022/01/09 03:04:11;;;;;;;21.70;2.77;;;;;;;-145.18;100.00;47547.31;5029286;28;20125;-67
2022/01/09 03:06:36;;;;;;;20.53;3.17;;;;;;;-145.18;100.00;47535.59;5027371;28;20037;-68
2022/01/09 03:09:05;;;;;;;24.63;3.83;;;;;;;-145.18;100.00;47543.41;5029500;28;20124;-67
2022/01/09 03:11:31;;;;;;;20.43;4.37;;;;;;;-145.18;100.00;47559.03;5028462;28;20040;-67
2022/01/09 03:13:57;;;;;;;25.93;3.00;;;;;;;-145.18;100.00;47561.00;5028939;28;20367;-67
2022/01/09 03:16:22;;;;;;;20.27;2.83;;;;;;;-145.18;100.00;47547.31;5028164;28;20357;-67
2022/01/09 03:18:48;;;;;;;14.97;2.97;;;;;;;-145.18;100.00;47547.31;5028819;28;20053;-67
2022/01/09 03:21:13;;;;;;;25.47;3.93;;;;;;;-145.18;100.00;47539.50;5028350;28;20044;-67
2022/01/09 03:23:38;;;;;;;25.00;2.83;;;;;;;-145.18;100.00;47541.44;5029285;28;20069;-67
2022/01/09 03:26:04;;;;;;;28.40;3.87;;;;;;;-145.18;100.00;47525.81;5028328;28;20057;-67
2022/01/09 03:28:30;;;;;;;15.07;2.63;;;;;;;-145.18;100.00;47543.41;5028523;28;20498;-67
2022/01/09 03:30:55;;;;;;;19.60;3.17;;;;;;;-145.18;100.00;47559.03;5028348;28;20576;-67
2022/01/09 03:33:20;;;;;;;28.33;3.67;;;;;;;-145.18;100.00;47557.06;5028258;28;20045;-67
2022/01/09 03:35:46;;;;;;;17.63;3.23;;;;;;;-145.18;100.00;47549.25;5028570;28;20483;-67
2022/01/09 03:38:12;;;;;;;16.87;3.00;;;;;;;-145.18;100.00;47529.72;5026957;28;20036;-67
2022/01/09 03:40:38;;;;;;;19.77;2.77;;;;;;;-145.18;100.00;47545.34;5027517;28;20037;-67
2022/01/09 03:43:03;;;;;;;14.40;2.40;;;;;;;-145.18;100.00;47551.22;5027962;28;20401;-67
2022/01/09 03:45:29;;;;;;;16.77;2.03;;;;;;;-145.18;100.00;47557.06;5027899;28;20041;-67
2022/01/09 03:47:55;;;;;;;12.03;2.37;;;;;;;-145.18;100.00;47549.25;5027928;28;20099;-68
2022/01/09 03:50:20;;;;;;;22.20;2.70;;;;;;;-145.18;100.00;47535.59;5015319;28;20558;-68
2022/01/09 03:52:48;;;;;;;18.07;2.63;;;;;;;-145.18;100.00;47559.03;5008839;28;20313;-67
2022/01/09 03:55:14;;;;;;;17.83;2.40;;;;;;;-145.18;100.00;47559.03;5007009;28;20042;-67
2022/01/09 03:57:40;;;;;;;16.23;1.83;;;;;;;-145.18;100.00;47578.56;5008263;28;20937;-67
2022/01/09 04:00:08;;;;;;;13.20;2.13;;;;;;;-145.18;100.00;47562.94;5007990;28;20295;-67
2022/01/09 04:02:34;;;;;;;8.97;2.43;;;;;;;-145.18;100.00;47576.63;5007963;28;20045;-67
2022/01/09 04:05:00;;;;;;;26.60;3.13;;;;;;;-145.18;100.00;47547.31;5008194;28;20355;-67
2022/01/09 04:07:25;;;;;;;10.57;2.13;;;;;;;-145.18;100.00;47537.53;5007886;28;20113;-68
2022/01/09 04:09:50;;;;;;;23.80;2.80;;;;;;;-145.18;100.00;47568.81;5008892;28;20383;-67
2022/01/09 04:12:31;;;;;;;10.93;2.07;;;;;;;-145.18;100.00;47547.31;5022852;28;20119;-67
2022/01/09 04:14:56;;;;;;;11.60;2.27;;;;;;;-145.18;100.00;47535.59;5008089;28;20128;-67
2022/01/09 04:17:37;;;;;;;21.07;2.80;;;;;;;-145.18;100.00;47531.69;5007472;28;20362;-67
2022/01/09 04:20:04;;;;;;;11.10;2.10;;;;;;;-145.18;100.00;47543.41;5007992;28;20410;-68
2022/01/09 04:22:30;;;;;;;17.13;2.73;;;;;;;-145.18;100.00;47543.41;5007661;28;20275;-67
2022/01/09 04:24:55;;;;;;;13.57;2.13;;;;;;;-145.18;100.00;47543.41;5007747;28;20874;-68
2022/01/09 04:27:20;;;;;;;18.07;3.43;;;;;;;-145.18;100.00;47574.66;5007291;28;20107;-67
2022/01/09 04:29:46;;;;;;;11.90;2.43;;;;;;;-145.18;100.00;47557.06;5007798;28;20041;-67
2022/01/09 04:32:11;;;;;;;14.87;2.17;;;;;;;-145.18;100.00;47551.22;5007323;28;20115;-68
2022/01/09 04:34:36;;;;;;;17.63;2.40;;;;;;;-145.18;100.00;47559.03;5008389;28;20127;-67
2022/01/09 04:37:02;;;;;;;12.53;1.87;;;;;;;-145.18;100.00;47578.56;5022472;28;20050;-67
2022/01/09 04:39:28;;;;;;;7.90;1.43;;;;;;;-145.18;100.00;47551.22;5007502;28;20457;-67
2022/01/09 04:41:54;;;;;;;17.13;2.50;;;;;;;-145.18;100.00;47576.63;5007299;28;20034;-68
2022/01/09 04:44:19;;;;;;;16.70;2.30;;;;;;;-145.18;100.00;47561.00;5007501;28;20038;-67
2022/01/09 04:46:46;;;;;;;13.50;1.97;;;;;;;-145.18;100.00;47564.91;5024025;28;20535;-68
2022/01/09 04:49:12;;;;;;;8.57;1.50;;;;;;;-145.18;100.00;47561.00;5027994;28;20037;-68
2022/01/09 04:51:38;;;;;;;13.87;2.37;;;;;;;-145.18;100.00;47559.03;5026114;28;20286;-67
2022/01/09 04:54:04;;;;;;;13.80;3.37;;;;;;;-145.18;100.00;47553.16;5026632;28;20055;-68
2022/01/09 04:56:30;;;;;;;11.13;1.93;;;;;;;-145.18;100.00;47547.31;5026683;28;20798;-67
2022/01/09 04:58:56;;;;;;;17.53;2.27;;;;;;;-145.18;100.00;47570.75;5027163;28;21300;-68
2022/01/09 05:01:21;;;;;;;10.87;1.80;;;;;;;-145.18;100.00;47570.75;5026372;28;20306;-68
2022/01/09 05:03:46;;;;;;;9.53;1.67;;;;;;;-145.18;100.00;47561.00;5027470;28;20042;-67
2022/01/09 05:06:12;;;;;;;8.80;1.63;;;;;;;-145.18;100.00;47578.56;5027075;28;20044;-67
2022/01/09 05:08:37;;;;;;;10.53;1.97;;;;;;;-145.18;100.00;47570.75;5026773;28;20064;-67
2022/01/09 05:11:02;;;;;;;12.43;2.73;;;;;;;-145.18;100.00;47568.81;5027051;28;20045;-68
2022/01/09 05:13:28;;;;;;;12.80;2.00;;;;;;;-145.18;100.00;47574.66;5026294;28;20560;-68
2022/01/09 05:15:55;;;;;;;15.27;2.00;;;;;;;-145.18;100.00;47570.75;5026769;28;20061;-68
2022/01/09 05:18:20;;;;;;;20.30;2.20;;;;;;;-145.18;100.00;47562.94;5027070;28;20052;-67
2022/01/09 05:20:46;;;;;;;10.30;2.00;;;;;;;-145.18;100.00;47574.66;5025321;28;20278;-68
2022/01/09 05:23:11;;;;;;;13.70;1.97;;;;;;;-145.18;100.00;47582.47;5026735;28;20498;-68
2022/01/09 05:25:37;;;;;;;15.07;1.90;;;;;;;-145.18;100.00;47570.75;5026463;28;20498;-66
2022/01/09 05:28:02;;;;;;;13.80;1.97;;;;;;;-145.18;100.00;47574.66;5026578;28;20575;-67
2022/01/09 05:30:28;;;;;;;8.40;1.73;;;;;;;-145.18;100.00;47559.03;5026521;28;20044;-68
2022/01/09 05:32:53;;;;;;;13.77;1.90;;;;;;;-145.18;100.00;47564.91;5025787;28;20095;-67
2022/01/09 05:35:19;;;;;;;22.30;2.97;;;;;;;-145.18;100.00;47576.63;5026424;28;20048;-68
2022/01/09 05:37:44;;;;;;;9.00;1.97;;;;;;;-145.18;100.00;47572.72;5026677;28;20036;-67
2022/01/09 05:40:10;;;;;;;22.63;4.17;;;;;;;-145.18;100.00;47564.91;5025443;28;20125;-67
2022/01/09 05:42:36;;;;;;;10.77;2.10;;;;;;;-145.18;100.00;47559.03;5024915;28;20430;-67
2022/01/09 05:45:03;;;;;;;6.67;2.10;;;;;;;-145.18;100.00;47557.06;5026328;28;20344;-68
2022/01/09 05:47:28;;;;;;;13.43;2.50;;;;;;;-145.18;100.00;47549.25;5026565;28;20053;-67
2022/01/09 05:49:54;;;;;;;10.07;2.60;;;;;;;-145.18;100.00;47551.22;5026791;28;20256;-67
2022/01/09 05:52:19;;;;;;;11.70;2.10;;;;;;;-145.18;100.00;47568.81;5025870;28;20045;-67
2022/01/09 05:54:44;;;;;;;17.80;1.83;;;;;;;-145.18;100.00;47551.22;5026443;28;20395;-68
2022/01/09 05:57:10;;;;;;;14.37;2.70;;;;;;;-145.18;100.00;47555.13;5026465;28;20041;-68
2022/01/09 05:59:35;;;;;;;14.23;2.17;;;;;;;-145.18;100.00;47551.22;5026162;28;20124;-68
2022/01/09 06:02:00;;;;;;;20.10;2.17;;;;;;;-145.18;100.00;47553.16;5026780;28;20053;-67
2022/01/09 06:04:26;;;;;;;15.17;1.90;;;;;;;-145.18;100.00;47531.69;5026363;28;20049;-68
2022/01/09 06:06:52;;;;;;;11.57;1.80;;;;;;;-145.18;100.00;47553.16;5026055;28;20061;-68
2022/01/09 06:09:18;;;;;;;28.17;2.90;;;;;;;-145.18;100.00;47547.31;5026149;28;20053;-67
2022/01/09 06:11:43;;;;;;;13.57;2.60;;;;;;;-145.18;100.00;47555.13;5026180;28;20048;-68
2022/01/09 06:14:08;;;;;;;12.70;3.40;;;;;;;-145.18;100.00;47553.16;5030067;28;20080;-68
2022/01/09 06:16:34;;;;;;;19.73;2.90;;;;;;;-145.18;100.00;47568.81;5028898;28;20045;-68
2022/01/09 06:18:59;;;;;;;21.60;3.37;;;;;;;-145.18;100.00;47547.31;5029906;28;20050;-67
2022/01/09 06:21:27;;;;;;;16.07;2.37;;;;;;;-145.18;100.00;47555.13;5029420;28;20045;-67
2022/01/09 06:23:54;;;;;;;16.80;1.90;;;;;;;-145.18;100.00;47574.66;5029769;28;20555;-67
2022/01/09 06:26:19;;;;;;;12.37;2.07;;;;;;;-145.18;100.00;47529.72;5029887;28;20278;-67
2022/01/09 06:28:45;;;;;;;11.73;1.80;;;;;;;-145.18;100.00;47549.25;5028308;28;20333;-67
2022/01/09 06:31:10;;;;;;;14.77;2.00;;;;;;;-145.18;100.00;47547.31;5029615;28;20515;-69
2022/01/09 06:33:35;;;;;;;13.57;2.30;;;;;;;-145.18;100.00;47568.81;5029976;28;20095;-67
2022/01/09 06:36:01;;;;;;;14.47;1.97;;;;;;;-145.18;100.00;47559.03;5029140;28;20076;-67
2022/01/09 06:38:26;;;;;;;7.13;2.10;;;;;;;-145.18;100.00;47562.94;5028794;28;20041;-67
2022/01/09 06:40:52;;;;;;;18.27;3.27;;;;;;;-145.18;100.00;47553.16;5029515;28;20045;-68
2022/01/09 06:43:17;;;;;;;13.93;2.33;;;;;;;-145.18;100.00;47562.94;5029149;28;20045;-68
2022/01/09 06:45:43;;;;;;;24.10;3.10;;;;;;;-145.18;100.00;47572.72;5029916;28;20053;-67
2022/01/09 06:48:08;;;;;;;21.40;2.97;;;;;;;-145.18;100.00;47553.16;5029380;28;20048;-68
2022/01/09 06:50:33;;;;;;;15.73;3.07;;;;;;;-145.18;100.00;47549.25;5029157;28;20414;-68
2022/01/09 06:52:59;;;;;;;24.13;3.53;;;;;;;-145.18;100.00;47551.22;5028848;28;20399;-68
2022/01/09 06:55:25;;;;;;;13.73;1.80;;;;;;;-145.18;100.00;47545.34;5029172;28;20026;-68
2022/01/09 06:57:50;;;;;;;9.10;2.07;;;;;;;-145.18;100.00;47547.31;5029242;28;20133;-68
2022/01/09 07:00:17;;;;;;;13.33;2.30;;;;;;;-145.18;100.00;47545.34;5030120;28;20041;-68
2022/01/09 07:02:43;;;;;;;9.40;1.60;;;;;;;-145.18;100.00;47547.31;5028504;28;20135;-68
2022/01/09 07:05:09;;;;;;;12.17;2.03;;;;;;;-145.18;100.00;47547.31;5029284;28;20412;-68
2022/01/09 07:07:34;;;;;;;20.43;2.93;;;;;;;-145.18;100.00;47551.22;5028942;28;20303;-68
2022/01/09 07:10:00;;;;;;;11.80;2.40;;;;;;;-145.18;100.00;47562.94;5029016;28;20407;-68
2022/01/09 07:12:25;;;;;;;14.43;2.20;;;;;;;-145.18;100.00;47564.91;5027763;28;20088;-68
2022/01/09 07:14:50;;;;;;;11.67;2.20;;;;;;;-145.18;100.00;47572.72;5028805;28;20045;-68
2022/01/09 07:17:16;;;;;;;12.37;2.47;;;;;;;-145.18;100.00;47553.16;5028781;28;20045;-67
2022/01/09 07:19:42;;;;;;;9.07;1.93;;;;;;;-145.18;100.00;47566.84;5028197;28;20451;-68
2022/01/09 07:22:07;;;;;;;14.03;2.27;;;;;;;-145.18;100.00;47576.63;5028493;28;20041;-68
2022/01/09 07:24:33;;;;;;;11.17;1.90;;;;;;;-145.18;100.00;47564.91;5028837;28;20474;-68
2022/01/09 07:26:59;;;;;;;10.80;1.73;;;;;;;-145.18;100.00;47566.84;5027699;28;20399;-68
2022/01/09 07:29:24;;;;;;;19.37;2.10;;;;;;;-145.18;100.00;47580.53;5026090;28;20282;-69
2022/01/09 07:31:51;;;;;;;12.60;2.07;;;;;;;-145.18;100.00;47555.13;5026026;28;20049;-68
2022/01/09 07:34:20;;;;;;;16.70;2.13;;;;;;;-145.18;100.00;47562.94;5026333;28;20073;-68
2022/01/09 07:36:46;;;;;;;8.30;1.40;;;;;;;-145.18;100.00;47566.84;5026616;28;20687;-67
2022/01/09 07:39:11;;;;;;;11.20;2.17;;;;;;;-145.18;100.00;47572.72;5028339;28;20320;-68
2022/01/09 07:41:37;;;;;;;14.03;2.07;;;;;;;-145.18;100.00;47566.84;5027881;28;20428;-68
2022/01/09 07:44:03;;;;;;;15.33;2.33;;;;;;;-145.18;100.00;47582.47;5028041;28;20041;-68
2022/01/09 07:46:28;;;;;;;16.13;2.67;;;;;;;-145.18;100.00;47598.09;5027974;28;20061;-71
2022/01/09 07:48:54;;;;;;;12.17;3.13;;;;;;;-145.18;100.00;47578.56;5028515;28;20045;-68
2022/01/09 07:51:20;;;;;;;13.97;2.60;;;;;;;-145.18;100.00;47588.34;5028119;28;20077;-68
2022/01/09 07:53:45;;;;;;;15.67;2.53;;;;;;;-145.18;100.00;47578.56;5026540;28;20524;-68
2022/01/09 07:56:10;;;;;;;10.20;2.10;;;;;;;-145.18;100.00;47582.47;5025613;28;20064;-69
2022/01/09 07:58:36;;;;;;;22.77;2.90;;;;;;;-145.18;100.00;47576.63;5026730;28;20053;-68
2022/01/09 08:01:01;;;;;;;11.93;3.03;;;;;;;-145.18;100.00;47578.56;5027065;28;20406;-68
2022/01/09 08:03:26;;;;;;;13.23;3.73;;;;;;;-145.18;100.00;47574.66;5027087;28;20083;-69
2022/01/09 08:05:52;;;;;;;16.27;3.83;;;;;;;-145.18;100.00;47590.28;5028002;28;20055;-68
2022/01/09 08:08:17;;;;;;;18.00;3.03;;;;;;;-145.18;100.00;47570.75;5026934;28;20049;-68
2022/01/09 08:10:43;;;;;;;11.47;1.80;;;;;;;-145.18;100.00;47568.81;5027559;28;20544;-68
2022/01/09 08:13:08;;;;;;;14.10;1.77;;;;;;;-145.18;100.00;47555.13;5019053;28;20053;-69
2022/01/09 08:15:34;;;;;;;10.73;1.80;;;;;;;-145.18;100.00;47562.94;5022936;28;20049;-68
2022/01/09 08:17:59;;;;;;;12.00;2.07;;;;;;;-145.18;100.00;47564.91;5021179;28;20482;-68
2022/01/09 08:20:24;;;;;;;10.23;2.50;;;;;;;-145.18;100.00;47566.84;5024041;28;20107;-68
2022/01/09 08:22:50;;;;;;;16.80;3.10;;;;;;;-145.18;100.00;47566.84;5024485;28;20559;-68
2022/01/09 08:25:18;;;;;;;11.07;1.60;;;;;;;-145.18;100.00;47576.63;5024958;28;20041;-68
2022/01/09 08:27:45;;;;;;;11.03;2.50;;;;;;;-145.18;100.00;47584.44;5025054;28;20275;-68
2022/01/09 08:30:12;;;;;;;12.80;2.10;;;;;;;-145.18;100.00;47562.94;5024864;28;20919;-68
2022/01/09 08:32:39;;;;;;;21.30;4.43;;;;;;;-145.18;100.00;47578.56;5025422;28;20278;-68
2022/01/09 08:35:05;;;;;;;17.37;2.43;;;;;;;-145.18;100.00;47559.03;5025054;28;20277;-68
2022/01/09 08:37:31;;;;;;;15.23;2.40;;;;;;;-145.18;100.00;47566.84;5025633;28;20798;-68
2022/01/09 08:39:56;;;;;;;16.03;2.70;;;;;;;-145.18;100.00;47564.91;5025209;28;20313;-68
2022/01/09 08:42:22;;;;;;;16.47;2.97;;;;;;;-145.18;100.00;47572.72;5025119;28;20061;-69
2022/01/09 08:44:47;;;;;;;15.57;2.33;;;;;;;-145.18;100.00;47543.41;5024507;28;20041;-68
2022/01/09 08:47:13;;;;;;;13.47;2.20;;;;;;;-145.18;100.00;47568.81;5025699;28;20057;-70
2022/01/09 08:49:38;;;;;;;12.37;2.10;;;;;;;-145.18;100.00;47568.81;5026455;28;20053;-68
2022/01/09 08:52:04;;;;;;;14.60;3.20;;;;;;;-145.18;100.00;47543.41;5025390;28;20053;-68
2022/01/09 08:54:30;;;;;;;14.13;2.13;;;;;;;-145.18;100.00;47570.75;5026112;28;20045;-68
2022/01/09 08:56:56;;;;;;;12.83;2.00;;;;;;;-145.18;100.00;47559.03;5026331;28;20124;-68
2022/01/09 08:59:22;;;;;;;11.73;1.70;;;;;;;-145.18;100.00;47578.56;5025820;28;20037;-68
2022/01/09 09:01:47;;;;;;;22.43;3.23;;;;;;;-145.18;100.00;47561.00;5026349;28;20494;-69
2022/01/09 09:04:13;;;;;;;16.27;2.70;;;;;;;-145.18;100.00;47549.25;5023310;28;20102;-68
2022/01/09 09:06:39;;;;;;;13.63;2.37;;;;;;;-145.18;100.00;47555.13;5026137;28;20574;-68
2022/01/09 09:09:05;;;;;;;15.23;2.97;;;;;;;-145.18;100.00;47549.25;5025745;28;20049;-69
2022/01/09 09:11:30;;;;;;;23.70;2.27;;;;;;;-145.18;100.00;47566.84;5026058;28;20281;-68
2022/01/09 09:13:56;;;;;;;9.53;1.70;;;;;;;-145.18;100.00;47551.22;5025941;28;20275;-68
2022/01/09 09:16:21;;;;;;;17.00;2.03;;;;;;;-145.18;100.00;47562.94;5025927;28;20410;-69
2022/01/09 09:18:48;;;;;;;22.90;3.03;;;;;;;-145.18;100.00;47547.31;5025034;28;20099;-68
2022/01/09 09:21:14;;;;;;;11.63;1.70;;;;;;;-145.18;100.00;47561.00;5025025;28;20048;-68
2022/01/09 09:23:39;;;;;;;20.93;2.70;;;;;;;-145.18;100.00;47557.06;5025755;28;20354;-68
2022/01/09 09:26:04;;;;;;;14.70;2.33;;;;;;;-145.18;100.00;47545.34;5025872;28;20128;-68
2022/01/09 09:28:30;;;;;;;12.57;2.03;;;;;;;-145.18;100.00;47541.44;5025701;28;20042;-68
2022/01/09 09:30:55;;;;;;;17.10;2.43;;;;;;;-145.18;100.00;47551.22;5022948;28;21090;-68
2022/01/09 09:33:21;;;;;;;13.10;3.33;;;;;;;-145.18;100.00;47559.03;5024131;28;20091;-68
2022/01/09 09:35:46;;;;;;;20.27;3.17;;;;;;;-145.18;100.00;47553.16;5025650;28;20069;-68
2022/01/09 09:38:12;;;;;;;16.93;2.73;;;;;;;-145.18;100.00;47559.03;5024897;28;20045;-68
2022/01/09 09:40:37;;;;;;;21.27;3.00;;;;;;;-145.18;100.00;47551.22;5025303;28;20111;-68
2022/01/09 09:43:03;;;;;;;10.70;2.20;;;;;;;-145.18;100.00;47537.53;5019248;28;20042;-68
2022/01/09 09:45:28;;;;;;;14.27;1.80;;;;;;;-145.18;100.00;47543.41;5023237;28;20049;-69
2022/01/09 09:47:54;;;;;;;8.40;1.43;;;;;;;-145.18;100.00;47543.41;5026704;28;20506;-70
2022/01/09 09:50:20;;;;;;;14.23;2.60;;;;;;;-145.18;100.00;47527.78;5027880;28;20069;-68
2022/01/09 09:52:47;;;;;;;14.53;2.60;;;;;;;-145.18;100.00;47539.50;5027714;28;20306;-68
2022/01/09 09:55:13;;;;;;;16.53;2.23;;;;;;;-145.18;100.00;47545.34;5028006;28;20258;-68
2022/01/09 09:57:39;;;;;;;18.57;1.97;;;;;;;-145.18;100.00;47543.41;5027598;28;20282;-68
2022/01/09 10:00:06;;;;;;;15.63;1.90;;;;;;;-145.18;100.00;47559.03;5028111;28;20659;-68
2022/01/09 10:02:45;;;;;;;10.00;1.80;;;;;;;-145.18;100.00;47543.41;5028457;28;20033;-69
2022/01/09 10:05:12;;;;;;;16.67;1.93;;;;;;;-145.18;100.00;47562.94;5029127;28;20278;-67
2022/01/09 10:07:37;;;;;;;19.30;2.00;;;;;;;-145.18;100.00;47570.75;5028376;28;20692;-68
2022/01/09 10:10:14;;;;;;;11.83;1.73;;;;;;;-145.18;100.00;47559.03;5029404;28;20350;-67
2022/01/09 10:12:40;;;;;;;14.37;2.20;;;;;;;-145.18;100.00;47578.56;5028716;28;20048;-68
2022/01/09 10:15:09;;;;;;;10.93;1.87;;;;;;;-145.18;100.00;47543.41;5028317;28;20823;-68
2022/01/09 10:17:39;;;;;;;14.47;1.83;;;;;;;-145.18;100.00;47549.25;5024962;28;20282;-68
2022/01/09 10:20:16;;;;;;;19.20;2.33;;;;;;;-145.18;100.00;47557.06;5020887;28;20380;-68
2022/01/09 10:22:51;;;;;;;12.97;1.83;;;;;;;-145.18;100.00;47551.22;5023153;28;20282;-68
2022/01/09 10:25:25;;;;;;;16.40;3.27;;;;;;;-145.18;100.00;47553.16;5028269;28;20282;-68
2022/01/09 10:27:59;;;;;;;19.63;2.10;;;;;;;-145.18;100.00;47543.41;5028435;28;20294;-67
2022/01/09 10:30:28;;;;;;;21.73;3.00;;;;;;;-145.18;100.00;47541.44;5028641;28;20266;-68
2022/01/09 10:32:56;;;;;;;17.77;2.20;;;;;;;-145.18;100.00;47535.59;5027544;28;20686;-68
2022/01/09 10:35:22;;;;;;;20.17;2.57;;;;;;;-145.18;100.00;47535.59;5027820;28;20254;-68
2022/01/09 10:37:50;;;;;;;16.10;2.23;;;;;;;-145.18;100.00;47547.31;5027984;28;20350;-68
2022/01/09 10:40:29;;;;;;;20.87;2.80;;;;;;;-145.18;100.00;47553.16;5028714;28;20041;-68
2022/01/09 10:43:16;;;;;;;17.13;2.33;;;;;;;-145.18;100.00;47547.31;5029398;28;20254;-68
2022/01/09 10:45:59;;;;;;;18.67;1.87;;;;;;;-145.18;100.00;47543.41;5018254;28;20278;-68
2022/01/09 10:48:33;;;;;;;11.33;2.03;;;;;;;-145.18;100.00;47561.00;5029054;28;20726;-69
2022/01/09 10:50:59;;;;;;;13.77;1.50;;;;;;;-145.18;100.00;47574.66;5029055;28;20271;-68
2022/01/09 10:53:26;;;;;;;15.67;2.20;;;;;;;-145.18;100.00;47539.50;5028572;28;20274;-68
2022/01/09 10:56:30;;;;;;;8.57;1.43;;;;;;;-145.18;100.00;47561.00;5029483;28;20632;-68
2022/01/09 10:58:57;;;;;;;4.93;1.00;;;;;;;-145.18;100.00;47572.72;4948339;28;20642;-68
2022/01/09 11:01:27;;;;;;;10.87;2.20;;;;;;;-145.18;100.00;47562.94;4941046;28;20306;-67